Time;durP1;ratioP1;P1;durP2;ratioP2;P2;SDS_P1;SDS_P2;PMS_P1;PMS_P2;Temp;Humidity;BMP_temperature;BMP_pressure;BME280_temperature;BME280_humidity;BME280_pressure;Samples;Min_cycle;Max_cycle;Signal;HPM_P1;HPM_P2
2020/12/23 00:00:15;;;;;;;1.00;0.90;;;;;;;11.50;100.00;96480.00;4998871;28;20210;-72
2020/12/23 00:02:41;;;;;;;1.37;0.70;;;;;;;11.52;100.00;96478.00;4999086;28;20717;-73
2020/12/23 00:05:09;;;;;;;3.17;1.00;;;;;;;11.48;100.00;96466.97;4997958;28;20194;-72
2020/12/23 00:07:36;;;;;;;1.33;0.90;;;;;;;11.49;100.00;96483.59;4997628;28;20229;-73
2020/12/23 00:10:04;;;;;;;2.57;1.17;;;;;;;11.44;100.00;96476.19;4998732;28;20213;-72
2020/12/23 00:12:30;;;;;;;3.10;0.85;;;;;;;11.44;100.00;96472.75;4998422;28;20218;-72
2020/12/23 00:14:56;;;;;;;1.40;1.00;;;;;;;11.43;100.00;96474.59;4999304;28;20199;-72
2020/12/23 00:17:22;;;;;;;3.80;1.30;;;;;;;11.49;100.00;96473.84;4998394;28;20198;-72
2020/12/23 00:19:48;;;;;;;2.25;1.08;;;;;;;11.47;100.00;96475.88;5000234;28;20685;-72
2020/12/23 00:22:14;;;;;;;2.97;1.10;;;;;;;11.42;100.00;96472.94;5000279;28;20225;-72
2020/12/23 00:24:41;;;;;;;1.70;1.10;;;;;;;11.28;100.00;96475.53;4999814;28;20213;-72
2020/12/23 00:27:07;;;;;;;2.38;1.17;;;;;;;11.33;100.00;96479.28;5001071;28;20674;-72
2020/12/23 00:29:33;;;;;;;2.50;1.00;;;;;;;11.38;100.00;96476.94;5004235;28;20213;-72
2020/12/23 00:31:59;;;;;;;1.50;0.97;;;;;;;11.36;100.00;96478.09;5003830;28;20316;-72
2020/12/23 00:34:25;;;;;;;1.10;1.00;;;;;;;11.28;100.00;96475.53;5003814;28;20238;-72
2020/12/23 00:36:53;;;;;;;2.20;1.10;;;;;;;11.22;100.00;96466.47;5003039;28;20246;-72
2020/12/23 00:39:19;;;;;;;3.17;1.00;;;;;;;11.15;100.00;96475.25;5003735;28;20198;-72
2020/12/23 00:41:44;;;;;;;1.55;0.90;;;;;;;11.08;100.00;96469.84;5003206;28;20260;-72
2020/12/23 00:44:12;;;;;;;1.80;0.95;;;;;;;11.04;100.00;96473.03;5003739;28;20206;-72
2020/12/23 00:46:37;;;;;;;1.88;1.00;;;;;;;11.12;100.00;96472.97;5003144;28;20260;-72
2020/12/23 00:49:04;;;;;;;1.45;0.90;;;;;;;11.08;100.00;96480.41;5002810;28;20207;-72
2020/12/23 00:51:29;;;;;;;1.50;0.98;;;;;;;11.07;100.00;96478.78;5002872;28;20230;-72
2020/12/23 00:53:56;;;;;;;1.83;1.10;;;;;;;11.03;100.00;96488.00;5003533;28;20202;-72
2020/12/23 00:56:22;;;;;;;3.03;1.20;;;;;;;11.14;100.00;96495.53;5003081;28;20203;-72
2020/12/23 00:58:48;;;;;;;1.30;1.00;;;;;;;11.15;100.00;96489.28;5004263;28;20265;-72
2020/12/23 01:01:15;;;;;;;1.67;1.10;;;;;;;11.10;100.00;96488.16;5005267;28;20861;-72
2020/12/23 01:03:41;;;;;;;1.27;1.00;;;;;;;10.94;100.00;96488.25;5003437;28;20206;-72
2020/12/23 01:06:07;;;;;;;1.25;0.90;;;;;;;11.07;100.00;96497.25;5003435;28;20210;-72
2020/12/23 01:08:33;;;;;;;2.70;1.17;;;;;;;11.11;100.00;96484.50;5004977;28;20273;-72
2020/12/23 01:10:59;;;;;;;1.48;0.90;;;;;;;10.99;100.00;96494.63;5004656;28;20234;-72
2020/12/23 01:13:25;;;;;;;1.30;1.00;;;;;;;10.98;100.00;96485.09;5004022;28;20199;-73
2020/12/23 01:15:51;;;;;;;1.60;1.00;;;;;;;11.01;100.00;96497.94;5005122;28;20209;-72
2020/12/23 01:18:18;;;;;;;1.83;1.13;;;;;;;10.97;100.00;96493.16;5005340;28;20618;-72
2020/12/23 01:20:44;;;;;;;1.70;1.10;;;;;;;10.98;100.00;96489.53;5003346;28;20230;-72
2020/12/23 01:23:10;;;;;;;2.03;1.10;;;;;;;10.94;100.00;96482.97;5005070;28;20637;-72
2020/12/23 01:25:36;;;;;;;2.00;1.30;;;;;;;10.87;100.00;96497.84;5004187;28;21047;-72
2020/12/23 01:28:02;;;;;;;2.90;1.07;;;;;;;10.80;100.00;96496.06;5002545;28;20206;-72
2020/12/23 01:30:28;;;;;;;5.00;1.30;;;;;;;10.73;100.00;96484.56;5002913;28;20261;-72
2020/12/23 01:32:54;;;;;;;1.73;1.10;;;;;;;10.65;100.00;96487.22;5003702;28;20260;-72
2020/12/23 01:35:20;;;;;;;1.97;1.20;;;;;;;10.60;100.00;96489.56;5003599;28;21195;-72
2020/12/23 01:37:46;;;;;;;2.53;1.63;;;;;;;10.51;100.00;96487.94;5004089;28;20233;-72
2020/12/23 01:40:13;;;;;;;3.40;1.30;;;;;;;10.45;100.00;96485.97;5003036;28;20580;-72
2020/12/23 01:42:39;;;;;;;3.13;1.43;;;;;;;10.37;100.00;96489.50;5003211;28;20246;-72
2020/12/23 01:45:06;;;;;;;2.53;1.10;;;;;;;10.31;100.00;96484.09;5002820;28;20215;-72
2020/12/23 01:47:33;;;;;;;2.00;1.10;;;;;;;10.40;100.00;96488.34;5002476;28;20616;-72
2020/12/23 01:50:00;;;;;;;1.83;1.40;;;;;;;10.31;100.00;96488.50;5003169;28;20195;-72
2020/12/23 01:52:27;;;;;;;2.73;1.40;;;;;;;10.31;100.00;96497.25;5002993;28;20694;-72
2020/12/23 01:54:54;;;;;;;2.93;1.27;;;;;;;10.19;100.00;96490.69;5003581;28;20210;-73
2020/12/23 01:57:20;;;;;;;3.53;1.40;;;;;;;10.17;100.00;96495.31;5002623;28;20214;-73
2020/12/23 01:59:47;;;;;;;2.60;1.43;;;;;;;10.20;100.00;96487.06;5003003;28;20218;-73
2020/12/23 02:02:38;;;;;;;4.73;1.50;;;;;;;10.19;100.00;96482.78;5003137;28;20222;-72
2020/12/23 02:05:05;;;;;;;3.23;1.60;;;;;;;10.19;100.00;96474.06;4987411;28;20580;-72
2020/12/23 02:07:33;;;;;;;2.80;1.57;;;;;;;10.24;100.00;96477.84;5002555;28;20280;-72
2020/12/23 02:10:02;;;;;;;3.10;1.80;;;;;;;10.23;100.00;96473.53;5001487;28;20213;-72
2020/12/23 02:12:28;;;;;;;1.87;1.30;;;;;;;10.24;100.00;96477.03;5002122;28;20230;-73
2020/12/23 02:14:55;;;;;;;4.53;1.30;;;;;;;10.26;100.00;96475.03;5001392;28;20202;-72
2020/12/23 02:17:21;;;;;;;1.90;1.40;;;;;;;10.25;100.00;96463.69;5001754;28;20198;-72
2020/12/23 02:19:50;;;;;;;1.40;1.07;;;;;;;10.26;100.00;96462.69;5002240;28;20302;-73
2020/12/23 02:22:18;;;;;;;2.17;1.20;;;;;;;10.19;100.00;96463.53;5002846;28;20256;-72
2020/12/23 02:24:45;;;;;;;1.63;1.20;;;;;;;10.17;100.00;96462.88;5002652;28;20206;-72
2020/12/23 02:27:12;;;;;;;3.00;1.27;;;;;;;10.15;100.00;96460.41;5001415;28;20264;-72
2020/12/23 02:29:41;;;;;;;1.27;1.10;;;;;;;10.14;100.00;96450.06;5002331;28;20595;-72
2020/12/23 02:32:07;;;;;;;4.77;1.50;;;;;;;10.14;100.00;96448.22;5001581;28;21012;-72
2020/12/23 02:34:33;;;;;;;1.73;1.20;;;;;;;10.13;100.00;96446.63;5002739;28;20215;-72
2020/12/23 02:36:59;;;;;;;1.83;1.23;;;;;;;10.08;100.00;96445.44;5002229;28;20341;-72
2020/12/23 02:39:25;;;;;;;5.60;1.23;;;;;;;9.93;100.00;96442.66;5001374;28;20234;-72
2020/12/23 02:41:55;;;;;;;1.70;1.17;;;;;;;9.90;100.00;96445.66;5001439;28;20230;-72
2020/12/23 02:44:21;;;;;;;1.73;1.10;;;;;;;10.00;100.00;96437.59;5001951;28;20206;-72
2020/12/23 02:46:57;;;;;;;3.07;1.30;;;;;;;9.91;100.00;96438.56;5000936;28;20221;-72
2020/12/23 02:49:23;;;;;;;5.03;1.30;;;;;;;9.93;100.00;96432.13;5000962;28;20292;-72
2020/12/23 02:51:49;;;;;;;1.50;1.00;;;;;;;9.90;100.00;96432.50;5000958;28;20238;-72
2020/12/23 02:54:15;;;;;;;1.03;0.93;;;;;;;9.90;100.00;96432.50;5001583;28;20202;-72
2020/12/23 02:56:41;;;;;;;1.50;1.20;;;;;;;9.94;100.00;96433.78;5000118;28;20214;-72
2020/12/23 02:59:08;;;;;;;3.08;1.30;;;;;;;9.89;100.00;96428.22;5000597;28;20301;-72
2020/12/23 03:01:34;;;;;;;2.63;1.30;;;;;;;9.85;100.00;96433.97;5000795;28;20234;-72
2020/12/23 03:04:00;;;;;;;1.60;1.20;;;;;;;9.86;100.00;96431.19;5000520;28;20210;-72
2020/12/23 03:06:26;;;;;;;2.40;1.20;;;;;;;9.87;100.00;96435.44;5000249;28;20203;-72
2020/12/23 03:08:53;;;;;;;5.05;1.08;;;;;;;9.90;100.00;96434.28;4999957;28;20214;-72
2020/12/23 03:11:19;;;;;;;1.93;1.20;;;;;;;9.87;100.00;96427.53;4999278;28;21135;-72
2020/12/23 03:13:45;;;;;;;1.47;1.13;;;;;;;9.91;100.00;96423.56;5000706;28;20206;-72
2020/12/23 03:16:12;;;;;;;1.33;1.00;;;;;;;9.80;100.00;96421.31;5000282;28;20217;-72
2020/12/23 03:18:39;;;;;;;2.67;1.03;;;;;;;9.86;100.00;96423.28;5000501;28;20272;-71
2020/12/23 03:21:05;;;;;;;2.35;1.40;;;;;;;9.78;100.00;96428.53;5000062;28;20222;-72
2020/12/23 03:23:31;;;;;;;1.30;1.20;;;;;;;9.82;100.00;96421.97;5000392;28;20210;-72
2020/12/23 03:25:57;;;;;;;2.78;1.10;;;;;;;9.79;100.00;96413.59;5000185;28;20685;-72
2020/12/23 03:28:23;;;;;;;2.07;1.37;;;;;;;9.75;100.00;96415.72;4999718;28;20206;-72
2020/12/23 03:30:49;;;;;;;1.50;1.20;;;;;;;9.75;100.00;96407.84;4999980;28;20277;-72
2020/12/23 03:33:15;;;;;;;2.35;1.30;;;;;;;9.73;100.00;96404.53;4998559;28;20309;-73
2020/12/23 03:35:41;;;;;;;3.15;1.30;;;;;;;9.76;100.00;96404.22;4999342;28;20272;-72
2020/12/23 03:38:07;;;;;;;2.30;1.20;;;;;;;9.71;100.00;96408.31;4999975;28;20866;-72
2020/12/23 03:40:33;;;;;;;1.80;0.95;;;;;;;9.72;100.00;96397.66;5000106;28;20238;-72
2020/12/23 03:42:59;;;;;;;1.37;1.10;;;;;;;9.71;100.00;96389.91;4999925;28;20264;-72
2020/12/23 03:45:25;;;;;;;2.00;1.10;;;;;;;9.75;100.00;96383.34;4999879;28;20246;-72
2020/12/23 03:47:51;;;;;;;3.05;1.15;;;;;;;9.70;100.00;96381.19;5000170;28;20206;-72
2020/12/23 03:50:18;;;;;;;1.05;0.90;;;;;;;9.72;100.00;96358.19;5000687;28;20221;-72
2020/12/23 03:52:44;;;;;;;1.50;1.23;;;;;;;9.71;100.00;96380.22;5000407;28;20237;-72
2020/12/23 03:55:10;;;;;;;2.10;1.20;;;;;;;9.68;100.00;96368.41;5000563;28;20280;-72
2020/12/23 03:57:36;;;;;;;2.17;1.17;;;;;;;9.68;100.00;96370.00;5001333;28;20218;-72
2020/12/23 04:00:04;;;;;;;2.58;1.17;;;;;;;9.71;100.00;96380.22;5000573;28;20725;-72
2020/12/23 04:02:30;;;;;;;1.40;1.10;;;;;;;9.71;100.00;96372.31;5003145;28;20230;-72
2020/12/23 04:04:56;;;;;;;2.73;1.20;;;;;;;9.79;100.00;96377.56;5004754;28;20284;-72
2020/12/23 04:07:23;;;;;;;1.43;1.00;;;;;;;9.80;100.00;96373.09;5003606;28;20249;-72
2020/12/23 04:09:49;;;;;;;2.13;1.20;;;;;;;9.71;100.00;96372.31;5004810;28;20210;-72
2020/12/23 04:12:14;;;;;;;1.47;1.10;;;;;;;9.59;100.00;96398.34;5004286;28;20261;-72
2020/12/23 04:14:40;;;;;;;1.53;1.20;;;;;;;9.94;100.00;96401.38;5004458;28;20221;-72
2020/12/23 04:17:06;;;;;;;1.20;1.10;;;;;;;9.94;100.00;96386.41;5003702;28;20234;-72
2020/12/23 04:19:32;;;;;;;1.77;0.97;;;;;;;9.85;100.00;96384.78;5004051;28;20608;-72
2020/12/23 04:21:58;;;;;;;1.37;1.17;;;;;;;9.84;100.00;96392.88;5004133;28;20277;-72
2020/12/23 04:24:25;;;;;;;1.63;1.20;;;;;;;9.81;100.00;96377.38;5004264;28;20217;-72
2020/12/23 04:26:51;;;;;;;1.60;1.33;;;;;;;9.81;100.00;96357.19;5004221;28;20206;-72
2020/12/23 04:29:17;;;;;;;2.20;1.20;;;;;;;9.79;100.00;96374.13;5004183;28;20219;-72
2020/12/23 04:31:44;;;;;;;2.10;1.30;;;;;;;9.76;100.00;96351.59;5003214;28;20230;-72
2020/12/23 04:34:10;;;;;;;4.97;1.30;;;;;;;9.73;100.00;96356.38;5003217;28;20780;-72
2020/12/23 04:36:36;;;;;;;1.70;1.40;;;;;;;9.63;100.00;96347.03;5002839;28;20213;-72
2020/12/23 04:39:03;;;;;;;1.87;1.20;;;;;;;9.65;100.00;96363.44;5003363;28;20284;-72
2020/12/23 04:41:30;;;;;;;2.17;1.30;;;;;;;9.48;100.00;96373.22;5002806;28;20273;-72
2020/12/23 04:43:56;;;;;;;2.27;1.40;;;;;;;9.53;100.00;96380.59;5003637;28;20222;-72
2020/12/23 04:46:24;;;;;;;1.73;1.40;;;;;;;9.59;100.00;96364.16;5002704;28;20269;-72
2020/12/23 04:48:56;;;;;;;2.30;1.50;;;;;;;9.57;100.00;96366.94;5002536;28;20214;-72
2020/12/23 04:51:28;;;;;;;1.93;1.30;;;;;;;9.57;100.00;96363.47;5003246;28;20333;-72
2020/12/23 04:53:54;;;;;;;5.70;1.60;;;;;;;9.68;100.00;96365.75;5003139;28;20207;-72
2020/12/23 04:56:20;;;;;;;2.17;1.30;;;;;;;9.72;100.00;96359.97;5002213;28;20211;-72
2020/12/23 04:58:47;;;;;;;2.33;1.40;;;;;;;9.76;100.00;96343.69;5002752;28;20234;-72
2020/12/23 05:01:14;;;;;;;1.93;1.33;;;;;;;9.76;100.00;96327.06;5002988;28;20229;-72
2020/12/23 05:03:40;;;;;;;1.67;1.30;;;;;;;9.72;100.00;96331.03;5002869;28;20202;-72
2020/12/23 05:06:07;;;;;;;2.50;1.63;;;;;;;9.81;100.00;96333.50;5001823;28;20606;-72
2020/12/23 05:08:34;;;;;;;2.50;1.30;;;;;;;9.84;100.00;96335.78;5001837;28;20218;-72
2020/12/23 05:11:05;;;;;;;1.77;1.20;;;;;;;9.92;100.00;96356.78;5001418;28;20238;-72
2020/12/23 05:13:31;;;;;;;3.00;1.33;;;;;;;9.93;100.00;96349.72;5002096;28;20210;-71
2020/12/23 05:15:58;;;;;;;3.17;1.38;;;;;;;9.95;100.00;96348.56;5001477;28;20210;-72
2020/12/23 05:18:31;;;;;;;3.60;1.20;;;;;;;9.98;100.00;96350.03;5002308;28;20610;-72
2020/12/23 05:20:57;;;;;;;1.83;1.20;;;;;;;10.15;100.00;96354.28;5002221;28;20321;-72
2020/12/23 05:23:24;;;;;;;1.63;1.00;;;;;;;10.06;100.00;96363.19;5002241;28;20210;-72
2020/12/23 05:25:50;;;;;;;3.50;1.40;;;;;;;10.14;100.00;96360.53;5001470;28;20237;-72
2020/12/23 05:28:16;;;;;;;4.97;1.50;;;;;;;10.09;100.00;96361.03;5001929;28;20221;-72
2020/12/23 05:30:42;;;;;;;2.97;1.50;;;;;;;10.16;100.00;96362.00;5002019;28;20321;-71
2020/12/23 05:33:09;;;;;;;2.67;1.57;;;;;;;10.05;100.00;96361.56;5002205;28;20214;-72
2020/12/23 05:35:37;;;;;;;2.80;1.50;;;;;;;9.91;100.00;96349.88;5000775;28;20217;-72
2020/12/23 05:38:02;;;;;;;3.37;2.03;;;;;;;9.84;100.00;96359.47;5001620;28;20301;-72
2020/12/23 05:40:29;;;;;;;3.37;1.80;;;;;;;9.83;100.00;96357.81;5001516;28;20241;-72
2020/12/23 05:42:56;;;;;;;2.77;1.83;;;;;;;9.93;100.00;96357.63;5001929;28;20210;-72
2020/12/23 05:45:26;;;;;;;3.57;1.23;;;;;;;9.83;100.00;96357.81;5001202;28;20627;-72
2020/12/23 05:47:52;;;;;;;2.67;1.50;;;;;;;9.89;100.00;96362.41;5001338;28;20210;-72
2020/12/23 05:50:20;;;;;;;2.33;1.57;;;;;;;9.86;100.00;96362.75;5001581;28;21217;-72
2020/12/23 05:52:46;;;;;;;3.20;2.03;;;;;;;9.92;100.00;96348.91;5001492;28;20717;-71
2020/12/23 05:55:16;;;;;;;4.93;2.00;;;;;;;9.96;100.00;96358.13;5001566;28;20337;-72
2020/12/23 05:57:42;;;;;;;4.13;1.90;;;;;;;10.06;100.00;96344.78;5001855;28;20629;-71
2020/12/23 06:00:08;;;;;;;2.40;1.60;;;;;;;10.06;100.00;96337.69;5001614;28;20252;-71
2020/12/23 06:02:46;;;;;;;2.97;1.40;;;;;;;10.06;100.00;96350.84;5001667;28;20230;-71
2020/12/23 06:05:19;;;;;;;3.50;2.00;;;;;;;9.95;100.00;96334.56;5000572;28;20214;-71
2020/12/23 06:07:48;;;;;;;5.20;3.00;;;;;;;9.84;100.00;96335.78;5000543;28;20218;-72
2020/12/23 06:10:14;;;;;;;7.80;4.63;;;;;;;9.87;100.00;96331.97;5001235;28;20257;-71
2020/12/23 06:12:47;;;;;;;5.70;3.70;;;;;;;10.03;100.00;96326.66;5001199;28;20288;-71
2020/12/23 06:15:17;;;;;;;5.10;3.20;;;;;;;9.90;100.00;96321.94;5000537;28;20211;-72
2020/12/23 06:17:45;;;;;;;3.97;2.83;;;;;;;9.89;100.00;96324.72;5000477;28;20325;-72
2020/12/23 06:20:11;;;;;;;4.63;2.50;;;;;;;9.84;100.00;96325.25;5001947;28;20225;-72
2020/12/23 06:22:37;;;;;;;5.73;2.50;;;;;;;9.81;100.00;96333.50;5001345;28;21278;-72
2020/12/23 06:25:04;;;;;;;6.73;3.30;;;;;;;9.76;100.00;96330.53;5000509;28;20218;-72
2020/12/23 06:27:32;;;;;;;9.87;4.87;;;;;;;9.83;100.00;96325.41;5001777;28;20214;-72
2020/12/23 06:29:58;;;;;;;9.13;4.93;;;;;;;9.88;100.00;96334.44;5001187;28;20564;-72
2020/12/23 06:32:25;;;;;;;7.30;3.93;;;;;;;9.89;100.00;96328.19;5000334;28;20615;-71
2020/12/23 06:34:55;;;;;;;6.97;3.50;;;;;;;9.87;100.00;96324.09;5001352;28;20213;-72
2020/12/23 06:37:23;;;;;;;4.43;2.90;;;;;;;9.97;100.00;96317.66;5002060;28;20214;-71
2020/12/23 06:39:50;;;;;;;5.93;3.10;;;;;;;9.96;100.00;96320.47;5003799;28;20791;-72
2020/12/23 06:42:36;;;;;;;6.47;3.10;;;;;;;9.99;100.00;96306.94;5003660;28;20226;-72
2020/12/23 06:45:07;;;;;;;6.40;3.50;;;;;;;9.96;100.00;96313.38;5001737;28;20308;-73
2020/12/23 06:47:34;;;;;;;3.93;2.70;;;;;;;10.00;100.00;96306.78;5000746;28;20210;-72
2020/12/23 06:50:02;;;;;;;3.97;2.47;;;;;;;9.90;100.00;96305.31;4999012;28;20214;-72
2020/12/23 06:52:42;;;;;;;6.00;3.17;;;;;;;9.79;100.00;96309.13;5000140;28;20900;-72
2020/12/23 06:55:09;;;;;;;5.23;3.60;;;;;;;9.77;100.00;96303.22;4999181;28;20211;-72
2020/12/23 06:57:55;;;;;;;5.33;2.90;;;;;;;9.70;100.00;96304.91;5000805;28;20209;-73
2020/12/23 07:00:35;;;;;;;5.27;2.73;;;;;;;9.65;100.00;96310.81;5000646;28;20218;-72
2020/12/23 07:03:03;;;;;;;6.07;2.80;;;;;;;9.62;100.00;96313.81;5000527;28;20202;-72
2020/12/23 07:05:38;;;;;;;7.20;3.03;;;;;;;9.61;100.00;96314.78;4998821;28;20988;-72
2020/12/23 07:08:05;;;;;;;6.77;3.13;;;;;;;9.62;100.00;96316.44;4999563;28;20221;-73
2020/12/23 07:10:33;;;;;;;4.60;3.30;;;;;;;9.59;100.00;96311.53;4998133;28;20221;-73
2020/12/23 07:13:01;;;;;;;4.50;3.43;;;;;;;9.58;100.00;96302.78;4997735;28;20225;-73
2020/12/23 07:15:29;;;;;;;5.23;3.37;;;;;;;9.58;100.00;96309.88;4997256;28;20209;-73
2020/12/23 07:18:01;;;;;;;4.10;3.20;;;;;;;9.63;100.00;96304.94;4995091;28;20504;-73
2020/12/23 07:20:29;;;;;;;6.23;3.30;;;;;;;9.59;100.00;96303.63;4994193;28;20206;-72
2020/12/23 07:22:55;;;;;;;6.10;3.83;;;;;;;9.66;100.00;96305.44;4996310;28;20256;-73
2020/12/23 07:25:23;;;;;;;9.77;4.20;;;;;;;9.64;100.00;96309.22;4996434;28;20210;-72
2020/12/23 07:27:54;;;;;;;3.60;2.50;;;;;;;9.78;100.00;96302.22;4996861;28;20198;-73
2020/12/23 07:30:21;;;;;;;5.30;3.30;;;;;;;9.76;100.00;96306.88;4996282;28;21018;-72
2020/12/23 07:32:58;;;;;;;5.37;3.30;;;;;;;9.82;100.00;96303.53;4994937;28;20229;-73
2020/12/23 07:35:25;;;;;;;6.70;3.33;;;;;;;9.81;100.00;96304.53;4994018;28;20290;-72
2020/12/23 07:37:53;;;;;;;6.60;3.07;;;;;;;9.83;100.00;96310.44;4995172;28;20206;-72
2020/12/23 07:40:20;;;;;;;4.77;3.00;;;;;;;9.84;100.00;96298.94;4995672;28;20198;-72
2020/12/23 07:42:47;;;;;;;4.60;2.90;;;;;;;9.85;100.00;96297.94;4994679;28;20269;-72
2020/12/23 07:45:13;;;;;;;7.97;3.70;;;;;;;9.85;100.00;96300.56;4994350;28;20289;-72
2020/12/23 07:47:40;;;;;;;5.40;2.70;;;;;;;9.89;100.00;96301.88;4997078;28;20209;-72
2020/12/23 07:50:06;;;;;;;3.73;2.63;;;;;;;9.89;100.00;96304.50;4997066;28;20202;-73
2020/12/23 07:52:33;;;;;;;3.60;2.40;;;;;;;9.89;100.00;96293.97;4996601;28;20284;-72
2020/12/23 07:55:11;;;;;;;5.80;2.93;;;;;;;9.96;100.00;96297.56;4996773;28;20290;-72
2020/12/23 07:57:37;;;;;;;7.33;3.30;;;;;;;9.97;100.00;96301.84;4996727;28;20237;-72
2020/12/23 08:00:05;;;;;;;6.77;3.10;;;;;;;10.02;100.00;96299.53;4997053;28;20198;-72
2020/12/23 08:02:31;;;;;;;5.63;2.70;;;;;;;10.03;100.00;96290.66;4997100;28;20229;-72
2020/12/23 08:04:58;;;;;;;4.17;2.20;;;;;;;10.08;100.00;96292.75;4997225;28;20289;-73
2020/12/23 08:07:24;;;;;;;7.43;3.47;;;;;;;10.04;100.00;96287.03;4995512;28;20210;-73
2020/12/23 08:09:50;;;;;;;8.43;2.27;;;;;;;10.00;100.00;96300.69;4996560;28;20211;-73
2020/12/23 08:12:17;;;;;;;4.30;2.23;;;;;;;10.02;100.00;96290.81;4995583;28;20233;-72
2020/12/23 08:14:43;;;;;;;14.00;6.10;;;;;;;10.06;100.00;96292.13;4996680;28;20320;-72
2020/12/23 08:17:09;;;;;;;14.80;7.00;;;;;;;10.07;100.00;96289.31;4995590;28;20293;-73
2020/12/23 08:19:35;;;;;;;10.23;4.87;;;;;;;10.09;100.00;96300.47;4996343;28;20234;-73
2020/12/23 08:22:10;;;;;;;18.47;9.00;;;;;;;10.14;100.00;96298.16;4995753;28;20226;-72
2020/12/23 08:24:36;;;;;;;19.57;8.80;;;;;;;10.11;100.00;96298.50;4996163;28;20305;-73
2020/12/23 08:27:03;;;;;;;26.80;12.17;;;;;;;10.19;100.00;96295.00;4995484;28;20269;-72
2020/12/23 08:29:30;;;;;;;14.97;8.70;;;;;;;10.23;100.00;96297.09;4995983;28;20222;-73
2020/12/23 08:31:56;;;;;;;5.30;3.63;;;;;;;10.21;100.00;96299.09;4996751;28;20237;-73
2020/12/23 08:34:25;;;;;;;3.70;2.50;;;;;;;10.26;100.00;96290.69;4996979;28;20573;-72
2020/12/23 08:36:52;;;;;;;2.33;1.93;;;;;;;10.29;100.00;96299.06;4996084;28;20218;-72
2020/12/23 08:39:24;;;;;;;4.37;2.07;;;;;;;10.27;100.00;96293.13;4997302;28;20297;-73
2020/12/23 08:41:50;;;;;;;3.87;1.57;;;;;;;10.28;100.00;96289.50;4996539;28;20227;-72
2020/12/23 08:44:21;;;;;;;3.20;1.93;;;;;;;10.29;100.00;96285.88;4997296;28;20207;-72
2020/12/23 08:46:47;;;;;;;1.70;1.60;;;;;;;10.36;100.00;96284.19;4996177;28;20222;-72
2020/12/23 08:49:14;;;;;;;2.50;1.83;;;;;;;10.37;100.00;96289.31;5000428;28;20288;-72
2020/12/23 08:51:40;;;;;;;3.27;1.70;;;;;;;10.39;100.00;96286.50;4999151;28;20423;-72
2020/12/23 08:54:16;;;;;;;4.43;2.43;;;;;;;10.43;100.00;96287.78;4999741;28;20849;-72
2020/12/23 08:56:49;;;;;;;1.70;1.40;;;;;;;10.46;100.00;96290.88;4998932;28;20210;-72
2020/12/23 08:59:15;;;;;;;2.20;1.30;;;;;;;10.45;100.00;96294.50;4999854;28;20232;-72
2020/12/23 09:01:44;;;;;;;2.50;1.20;;;;;;;10.48;100.00;96298.63;5000152;28;21310;-73
2020/12/23 09:04:12;;;;;;;2.20;1.10;;;;;;;10.56;100.00;96285.38;4999667;28;20202;-72
2020/12/23 09:06:39;;;;;;;4.73;1.50;;;;;;;10.55;100.00;96284.56;4998568;28;21153;-72
2020/12/23 09:09:09;;;;;;;3.77;1.30;;;;;;;10.57;100.00;96298.38;4998813;28;20704;-72
2020/12/23 09:11:43;;;;;;;2.20;1.10;;;;;;;10.57;100.00;96279.94;4999442;28;20231;-72
2020/12/23 09:14:20;;;;;;;2.80;1.20;;;;;;;10.58;100.00;96283.41;4999441;28;20681;-72
2020/12/23 09:16:55;;;;;;;2.30;1.37;;;;;;;10.66;100.00;96285.97;4997444;28;20213;-72
2020/12/23 09:19:39;;;;;;;4.03;1.93;;;;;;;10.72;100.00;96285.28;4998288;28;20206;-72
2020/12/23 09:22:05;;;;;;;2.30;1.50;;;;;;;10.76;100.00;96289.19;4997882;28;20229;-72
2020/12/23 09:24:31;;;;;;;3.33;1.30;;;;;;;10.78;100.00;96298.56;4997453;28;20206;-72
2020/12/23 09:26:57;;;;;;;3.30;1.60;;;;;;;10.76;100.00;96295.28;4997698;28;21073;-73
2020/12/23 09:29:24;;;;;;;2.27;1.40;;;;;;;10.79;100.00;96294.09;4999918;28;20261;-73
2020/12/23 09:31:50;;;;;;;2.50;1.30;;;;;;;10.82;100.00;96285.81;4999396;28;20230;-72
2020/12/23 09:34:22;;;;;;;2.30;1.50;;;;;;;10.77;100.00;96285.53;4999940;28;20199;-73
2020/12/23 09:36:55;;;;;;;3.27;1.83;;;;;;;10.75;100.00;96284.91;4998741;28;20203;-73
2020/12/23 09:39:21;;;;;;;3.57;1.93;;;;;;;10.80;100.00;96283.38;4999254;28;20207;-72
2020/12/23 09:41:58;;;;;;;2.27;1.50;;;;;;;10.77;100.00;96285.53;4999295;28;20234;-72
2020/12/23 09:44:24;;;;;;;2.63;1.97;;;;;;;10.76;100.00;96276.00;4999505;28;20202;-72
2020/12/23 09:46:50;;;;;;;3.40;2.07;;;;;;;10.77;100.00;96275.84;4997860;28;20207;-72
2020/12/23 09:49:16;;;;;;;4.63;3.30;;;;;;;10.80;100.00;96274.66;4998647;28;20313;-73
2020/12/23 09:51:46;;;;;;;4.37;2.83;;;;;;;10.79;100.00;96268.53;4999597;28;20234;-72
2020/12/23 09:54:12;;;;;;;3.37;2.00;;;;;;;10.83;100.00;96269.81;4998733;28;20213;-72
2020/12/23 09:56:37;;;;;;;3.77;1.50;;;;;;;10.92;100.00;96270.59;4998347;28;20221;-72
2020/12/23 09:59:03;;;;;;;2.13;1.40;;;;;;;10.89;100.00;96255.94;4998407;28;20203;-72
2020/12/23 10:01:32;;;;;;;3.40;2.27;;;;;;;10.86;100.00;96266.84;4999416;28;20222;-72
2020/12/23 10:03:58;;;;;;;3.07;1.70;;;;;;;10.93;100.00;96259.06;4995208;28;20210;-72
2020/12/23 10:06:24;;;;;;;2.50;1.37;;;;;;;10.90;100.00;96259.41;4998298;28;20229;-72
2020/12/23 10:08:50;;;;;;;3.13;1.90;;;;;;;10.95;100.00;96253.41;4998037;28;20218;-73
2020/12/23 10:11:17;;;;;;;2.07;1.40;;;;;;;10.95;100.00;96250.78;4997407;28;20222;-72
2020/12/23 10:13:43;;;;;;;2.50;1.60;;;;;;;10.94;100.00;96250.97;4998183;28;20214;-72
2020/12/23 10:16:09;;;;;;;2.77;1.90;;;;;;;10.96;100.00;96247.16;4997250;28;20729;-72
2020/12/23 10:18:36;;;;;;;9.13;1.80;;;;;;;10.97;100.00;96246.16;4997839;28;20203;-73
2020/12/23 10:21:02;;;;;;;1.90;1.13;;;;;;;11.00;100.00;96237.06;4998662;28;20230;-72
2020/12/23 10:23:28;;;;;;;2.20;1.80;;;;;;;11.01;100.00;96230.81;4998098;28;20949;-72
2020/12/23 10:25:54;;;;;;;2.87;1.83;;;;;;;11.06;100.00;96229.25;4997258;28;20233;-73
2020/12/23 10:28:19;;;;;;;2.53;1.50;;;;;;;11.00;100.00;96231.78;4997370;28;20245;-72
2020/12/23 10:30:45;;;;;;;4.93;3.03;;;;;;;11.00;100.00;96224.69;4997611;28;20202;-73
2020/12/23 10:33:11;;;;;;;3.37;1.20;;;;;;;11.11;100.00;96216.34;4997421;28;20313;-72
2020/12/23 10:35:38;;;;;;;2.73;1.50;;;;;;;11.11;100.00;96211.09;4996558;28;20309;-73
2020/12/23 10:38:04;;;;;;;2.67;1.77;;;;;;;11.13;100.00;96211.69;4997021;28;20264;-73
2020/12/23 10:40:30;;;;;;;4.93;3.20;;;;;;;11.15;100.00;96212.34;4997228;28;20524;-73
2020/12/23 10:42:56;;;;;;;8.32;3.40;;;;;;;11.14;100.00;96202.81;4998322;28;20228;-72
2020/12/23 10:45:22;;;;;;;3.27;2.37;;;;;;;11.14;100.00;96194.88;4996758;28;20669;-72
2020/12/23 10:47:48;;;;;;;10.20;3.97;;;;;;;11.28;100.00;96198.53;4997710;28;20226;-72
2020/12/23 10:50:14;;;;;;;8.25;4.20;;;;;;;11.42;100.00;96185.34;4996785;28;20269;-72
2020/12/23 10:52:41;;;;;;;2.00;1.30;;;;;;;11.45;100.00;96184.16;4996698;28;20260;-73
2020/12/23 10:55:07;;;;;;;5.20;2.77;;;;;;;11.53;100.00;96181.44;4996530;28;20213;-72
2020/12/23 10:57:33;;;;;;;3.43;1.87;;;;;;;11.74;100.00;96184.97;4997375;28;21112;-73
2020/12/23 10:59:59;;;;;;;3.30;1.55;;;;;;;11.74;100.00;96177.03;4996981;28;20329;-72
2020/12/23 11:02:25;;;;;;;3.83;2.37;;;;;;;12.08;100.00;96174.56;4996602;28;20219;-73
2020/12/23 11:04:51;;;;;;;7.15;3.40;;;;;;;12.25;100.00;96168.84;4997167;28;20207;-73
2020/12/23 11:07:17;;;;;;;3.72;1.77;;;;;;;12.19;100.00;96167.81;4996079;28;20237;-73
2020/12/23 11:09:44;;;;;;;5.30;2.30;;;;;;;12.25;100.00;96167.03;4996729;28;20610;-73
2020/12/23 11:12:10;;;;;;;5.10;2.60;;;;;;;12.39;100.00;96174.06;4997905;28;20222;-73
2020/12/23 11:14:37;;;;;;;3.72;2.38;;;;;;;12.49;100.00;96169.28;4997403;28;20202;-73
2020/12/23 11:17:03;;;;;;;7.78;3.03;;;;;;;12.55;100.00;96168.53;4995687;28;20209;-73
2020/12/23 11:19:29;;;;;;;5.43;2.42;;;;;;;12.56;99.35;96158.78;4997151;28;20230;-72
2020/12/23 11:21:55;;;;;;;9.43;2.95;;;;;;;12.20;99.60;96145.63;4996566;28;20279;-73
2020/12/23 11:24:21;;;;;;;7.38;4.00;;;;;;;12.21;100.00;96152.56;4996794;28;20675;-73
2020/12/23 11:26:49;;;;;;;4.35;2.72;;;;;;;12.16;100.00;96148.84;4996101;28;20237;-72
2020/12/23 11:29:15;;;;;;;5.57;2.60;;;;;;;12.06;100.00;96150.19;4996696;28;20203;-72